Time;durP1;ratioP1;P1;durP2;ratioP2;P2;SDS_P1;SDS_P2;PMS_P1;PMS_P2;Temp;Humidity;BMP_temperature;BMP_pressure;BME280_temperature;BME280_humidity;BME280_pressure;Samples;Min_cycle;Max_cycle;Signal;HPM_P1;HPM_P2
2021/11/11 00:01:52;;;;;;;;;;;;;;;;;;4390757;32;19937;-70
2021/11/11 00:04:19;;;;;;;;;;;;;;;;;;4391164;32;19953;-70
2021/11/11 00:06:45;;;;;;;;;;;;;;;;;;4390232;32;20354;-70
2021/11/11 00:09:10;;;;;;;;;;;;;;;;;;4390568;32;19941;-71
2021/11/11 00:11:35;;;;;;;;;;;;;;;;;;4389816;32;19938;-71
2021/11/11 00:16:54;;;;;;;;;;;;;;;;;;4391281;32;20330;-71
2021/11/11 00:19:19;;;;;;;;;;;;;;;;;;4390221;32;20041;-70
2021/11/11 00:21:48;;;;;;;;;;;;;;;;;;4375952;32;19975;-71
2021/11/11 00:24:15;;;;;;;;;;;;;;;;;;4389357;32;19941;-70
2021/11/11 00:26:40;;;;;;;;;;;;;;;;;;4389636;32;19946;-71
2021/11/11 00:29:05;;;;;;;;;;;;;;;;;;4390338;32;19930;-70
2021/11/11 00:31:31;;;;;;;;;;;;;;;;;;4391661;32;19953;-71
2021/11/11 00:33:56;;;;;;;;;;;;;;;;;;4391013;32;19938;-70
2021/11/11 00:36:21;;;;;;;;;;;;;;;;;;4389827;32;19941;-70
2021/11/11 00:38:46;;;;;;;;;;;;;;;;;;4390259;32;19938;-70
2021/11/11 00:41:13;;;;;;;;;;;;;;;;;;4391008;32;19938;-70
2021/11/11 00:43:39;;;;;;;;;;;;;;;;;;4376248;32;20314;-70
2021/11/11 00:46:04;;;;;;;;;;;;;;;;;;4390509;32;19938;-70
2021/11/11 00:48:29;;;;;;;;;;;;;;;;;;4389830;32;19975;-70
2021/11/11 00:50:54;;;;;;;;;;;;;;;;;;4390953;32;19961;-70
2021/11/11 00:53:19;;;;;;;;;;;;;;;;;;4389931;32;19934;-70
2021/11/11 00:55:45;;;;;;;;;;;;;;;;;;4391765;32;19972;-71
2021/11/11 00:58:17;;;;;;;;;;;;;;;;;;4391206;32;19987;-70
2021/11/11 01:00:42;;;;;;;;;;;;;;;;;;4390637;32;19980;-70
2021/11/11 01:03:53;;;;;;;;;;;;;;;;;;4389947;32;19969;-70
2021/11/11 01:19:38;;;;;;;;;;;;;;;;;;4376469;32;20342;-70
2021/11/11 01:22:03;;;;;;;;;;;;;;;;;;4386618;32;19987;-70
2021/11/11 01:24:28;;;;;;;;;;;;;;;;;;4393441;32;19969;-70
2021/11/11 01:26:53;;;;;;;;;;;;;;;;;;4392801;32;19934;-70
2021/11/11 01:29:18;;;;;;;;;;;;;;;;;;4392583;32;20026;-70
2021/11/11 01:31:44;;;;;;;;;;;;;;;;;;4392490;32;19938;-70
2021/11/11 01:34:09;;;;;;;;;;;;;;;;;;4392946;32;19934;-70
2021/11/11 01:36:37;;;;;;;;;;;;;;;;;;4394054;32;19934;-70
2021/11/11 01:39:02;;;;;;;;;;;;;;;;;;4392384;32;19949;-70
2021/11/11 01:41:27;;;;;;;;;;;;;;;;;;4390745;32;20303;-71
2021/11/11 01:43:59;;;;;;;;;;;;;;;;;;4391842;32;19964;-70
2021/11/11 01:46:27;;;;;;;;;;;;;;;;;;4393358;32;19937;-70
2021/11/11 01:48:55;;;;;;;;;;;;;;;;;;4380189;32;20288;-70
2021/11/11 01:51:23;;;;;;;;;;;;;;;;;;4392902;32;19979;-70
2021/11/11 01:53:49;;;;;;;;;;;;;;;;;;4392418;32;20409;-70
2021/11/11 01:56:14;;;;;;;;;;;;;;;;;;4393413;32;20209;-70
2021/11/11 01:58:40;;;;;;;;;;;;;;;;;;4392684;32;19992;-71
2021/11/11 02:01:05;;;;;;;;;;;;;;;;;;4390467;32;19937;-70
2021/11/11 02:03:30;;;;;;;;;;;;;;;;;;4391806;32;19934;-70
2021/11/11 02:05:55;;;;;;;;;;;;;;;;;;4391830;32;20334;-70
2021/11/11 02:08:20;;;;;;;;;;;;;;;;;;4392154;32;20333;-70
2021/11/11 02:10:45;;;;;;;;;;;;;;;;;;4392399;32;19934;-70
2021/11/11 02:13:10;;;;;;;;;;;;;;;;;;4391989;32;19934;-70
2021/11/11 02:15:36;;;;;;;;;;;;;;;;;;4392514;32;19967;-70
2021/11/11 02:18:01;;;;;;;;;;;;;;;;;;4378730;32;19942;-70
2021/11/11 02:20:26;;;;;;;;;;;;;;;;;;4379004;32;19964;-70
2021/11/11 02:23:12;;;;;;;;;;;;;;;;;;4391873;32;19952;-70
2021/11/11 02:28:21;;;;;;;;;;;;;;;;;;4392619;32;19975;-71
2021/11/11 02:30:46;;;;;;;;;;;;;;;;;;4377480;32;19938;-70
2021/11/11 02:33:11;;;;;;;;;;;;;;;;;;4390874;32;20313;-70
2021/11/11 02:35:46;;;;;;;;;;;;;;;;;;4392786;32;19934;-70
2021/11/11 02:38:11;;;;;;;;;;;;;;;;;;4392566;32;19993;-70
2021/11/11 02:40:36;;;;;;;;;;;;;;;;;;4391685;32;19933;-70
2021/11/11 02:43:01;;;;;;;;;;;;;;;;;;4391551;32;19942;-71
2021/11/11 02:45:26;;;;;;;;;;;;;;;;;;4391757;32;19945;-70
2021/11/11 02:47:52;;;;;;;;;;;;;;;;;;4378504;32;19953;-70
2021/11/11 02:50:17;;;;;;;;;;;;;;;;;;4391528;32;19957;-70
2021/11/11 02:52:43;;;;;;;;;;;;;;;;;;4392051;32;19938;-70
2021/11/11 02:55:23;;;;;;;;;;;;;;;;;;4391237;32;20389;-70
2021/11/11 02:57:49;;;;;;;;;;;;;;;;;;4391587;32;19969;-70
2021/11/11 03:00:24;;;;;;;;;;;;;;;;;;;;;
2021/11/11 03:02:52;;;;;;;;;;;;;;;;;;4388555;32;20328;-70
2021/11/11 03:05:28;;;;;;;;;;;;;;;;;;;;;
2021/11/11 03:08:03;;;;;;;;;;;;;;;;;;;;;
2021/11/11 03:15:58;;;;;;;;;;;;;;;;;;4360128;32;19972;-70
2021/11/11 03:18:24;;;;;;;;;;;;;;;;;;4359621;32;19942;-70
2021/11/11 03:20:49;;;;;;;;;;;;;;;;;;4381208;32;20324;-70
2021/11/11 03:23:14;;;;;;;;;;;;;;;;;;4390910;32;19937;-70
2021/11/11 03:25:40;;;;;;;;;;;;;;;;;;4391184;32;19962;-70
2021/11/11 03:28:06;;;;;;;;;;;;;;;;;;4389639;32;20421;-70
2021/11/11 03:30:31;;;;;;;;;;;;;;;;;;4389628;32;19945;-71
2021/11/11 03:32:56;;;;;;;;;;;;;;;;;;4390248;32;19981;-70
2021/11/11 03:35:21;;;;;;;;;;;;;;;;;;4377538;32;19946;-71
2021/11/11 03:37:46;;;;;;;;;;;;;;;;;;4391167;32;20308;-70
2021/11/11 03:40:18;;;;;;;;;;;;;;;;;;4390048;32;19960;-70
2021/11/11 03:45:33;;;;;;;;;;;;;;;;;;4389284;32;19941;-70
2021/11/11 03:48:06;;;;;;;;;;;;;;;;;;4378474;32;19953;-70
2021/11/11 03:50:31;;;;;;;;;;;;;;;;;;4384699;32;19934;-70
2021/11/11 03:52:57;;;;;;;;;;;;;;;;;;4374919;32;19942;-70
2021/11/11 03:55:24;;;;;;;;;;;;;;;;;;4374434;32;19980;-70
2021/11/11 03:57:51;;;;;;;;;;;;;;;;;;4376434;32;19958;-70
2021/11/11 04:00:16;;;;;;;;;;;;;;;;;;4388394;32;19971;-70
2021/11/11 04:10:58;;;;;;;;;;;;;;;;;;4359670;32;19949;-70
2021/11/11 04:13:35;;;;;;;;;;;;;;;;;;4363776;32;19993;-70
2021/11/11 04:16:09;;;;;;;;;;;;;;;;;;4375887;32;19954;-70
2021/11/11 04:21:32;;;;;;;;;;;;;;;;;;;;;
2021/11/11 04:23:57;;;;;;;;;;;;;;;;;;4375272;32;19941;-70
2021/11/11 04:26:49;;;;;;;;;;;;;;;;;;4376096;32;19983;-70
2021/11/11 04:29:18;;;;;;;;;;;;;;;;;;4374164;32;19957;-71
2021/11/11 04:31:52;;;;;;;;;;;;;;;;;;4368111;32;19952;-71
2021/11/11 04:34:19;;;;;;;;;;;;;;;;;;4373273;32;19942;-70
2021/11/11 04:37:16;;;;;;;;;;;;;;;;;;4376686;32;19950;-70
2021/11/11 04:59:34;;;;;;;;;;;;;;;;;;4359077;32;20335;-70
2021/11/11 05:04:09;;;;;;;;;;;;;;;;;;4393024;32;19968;-70
2021/11/11 05:12:13;;;;;;;;;;;;;;;;;;4392999;32;19956;-71
2021/11/11 05:14:41;;;;;;;;;;;;;;;;;;4393279;32;20373;-71
2021/11/11 05:17:14;;;;;;;;;;;;;;;;;;4392718;32;19938;-71
2021/11/11 05:19:49;;;;;;;;;;;;;;;;;;4379227;32;19990;-70
2021/11/11 05:22:14;;;;;;;;;;;;;;;;;;4393326;32;20341;-70
2021/11/11 05:24:39;;;;;;;;;;;;;;;;;;4392971;32;19938;-70
2021/11/11 05:27:04;;;;;;;;;;;;;;;;;;4393677;32;19934;-70
2021/11/11 05:29:32;;;;;;;;;;;;;;;;;;4392847;32;20036;-71
2021/11/11 05:31:57;;;;;;;;;;;;;;;;;;4392026;32;19945;-72
2021/11/11 05:34:23;;;;;;;;;;;;;;;;;;4390736;32;19957;-71
2021/11/11 05:39:35;;;;;;;;;;;;;;;;;;4390151;32;20012;-70
2021/11/11 05:42:20;;;;;;;;;;;;;;;;;;;;;
2021/11/11 05:53:30;;;;;;;;;;;;;;;;;;4360861;32;20026;-72
2021/11/11 05:55:56;;;;;;;;;;;;;;;;;;4358225;32;19956;-71
2021/11/11 05:58:21;;;;;;;;;;;;;;;;;;4378110;32;19933;-69
2021/11/11 06:00:48;;;;;;;;;;;;;;;;;;4377280;32;19937;-71
2021/11/11 06:03:13;;;;;;;;;;;;;;;;;;4370647;32;19944;-70
2021/11/11 06:05:46;;;;;;;;;;;;;;;;;;4378113;32;19933;-69
2021/11/11 06:08:11;;;;;;;;;;;;;;;;;;4366066;32;19948;-70
2021/11/11 06:10:36;;;;;;;;;;;;;;;;;;4378428;32;19939;-70
2021/11/11 06:13:01;;;;;;;;;;;;;;;;;;4379113;32;20320;-69
2021/11/11 06:15:27;;;;;;;;;;;;;;;;;;4378081;32;19957;-70
2021/11/11 06:17:55;;;;;;;;;;;;;;;;;;4378922;32;19934;-69
2021/11/11 06:20:27;;;;;;;;;;;;;;;;;;4389433;32;19938;-70
2021/11/11 06:25:53;;;;;;;;;;;;;;;;;;4345101;33;19935;-71
2021/11/11 06:33:46;;;;;;;;;;;;;;;;;;4344749;33;19965;-71
2021/11/11 06:39:27;;;;;;;;;;;;;;;;;;4328830;33;19974;-70
2021/11/11 06:41:52;;;;;;;;;;;;;;;;;;4323100;33;20366;-70
2021/11/11 06:47:01;;;;;;;;;;;;;;;;;;4352715;32;19965;-70
2021/11/11 06:49:27;;;;;;;;;;;;;;;;;;4367369;32;19997;-70
2021/11/11 06:51:52;;;;;;;;;;;;;;;;;;4382787;32;19937;-69
2021/11/11 06:54:17;;;;;;;;;;;;;;;;;;4384772;32;20272;-71
2021/11/11 06:56:42;;;;;;;;;;;;;;;;;;4376963;32;20295;-71
2021/11/11 06:59:08;;;;;;;;;;;;;;;;;;4383800;32;19966;-69
2021/11/11 07:01:33;;;;;;;;;;;;;;;;;;4376974;32;19961;-71
2021/11/11 07:03:59;;;;;;;;;;;;;;;;;;4375393;32;20342;-71
2021/11/11 07:06:24;;;;;;;;;;;;;;;;;;4376139;32;19946;-70
2021/11/11 07:08:50;;;;;;;;;;;;;;;;;;4377243;32;20001;-72
2021/11/11 07:11:15;;;;;;;;;;;;;;;;;;4376280;32;20072;-72
2021/11/11 07:13:56;;;;;;;;;;;;;;;;;;4376485;32;19937;-71
2021/11/11 07:16:21;;;;;;;;;;;;;;;;;;4376481;32;19942;-70
2021/11/11 07:18:46;;;;;;;;;;;;;;;;;;4374639;32;19952;-71
2021/11/11 07:21:11;;;;;;;;;;;;;;;;;;4377895;32;19954;-71
2021/11/11 07:23:37;;;;;;;;;;;;;;;;;;4377638;32;20330;-70
2021/11/11 07:26:02;;;;;;;;;;;;;;;;;;4376097;32;20295;-70
2021/11/11 07:28:27;;;;;;;;;;;;;;;;;;4372032;32;20646;-72
2021/11/11 07:30:52;;;;;;;;;;;;;;;;;;4373187;32;19964;-71
2021/11/11 07:38:45;;;;;;;;;;;;;;;;;;4376595;32;19949;-72
2021/11/11 07:41:13;;;;;;;;;;;;;;;;;;4375561;32;19942;-71
2021/11/11 07:46:24;;;;;;;;;;;;;;;;;;4370327;32;19957;-71
2021/11/11 07:48:58;;;;;;;;;;;;;;;;;;4375764;32;19970;-72
2021/11/11 07:51:23;;;;;;;;;;;;;;;;;;4376073;32;19969;-71
2021/11/11 07:56:55;;;;;;;;;;;;;;;;;;4372306;32;19949;-71
2021/11/11 07:59:30;;;;;;;;;;;;;;;;;;;;;
2021/11/11 08:04:47;;;;;;;;;;;;;;;;;;4318166;33;19999;-71
2021/11/11 08:07:14;;;;;;;;;;;;;;;;;;4325536;33;20423;-71
2021/11/11 08:09:39;;;;;;;;;;;;;;;;;;4322101;33;19976;-70
2021/11/11 08:12:10;;;;;;;;;;;;;;;;;;4321927;33;20003;-70
2021/11/11 08:14:35;;;;;;;;;;;;;;;;;;4326390;33;19995;-70
2021/11/11 08:17:00;;;;;;;;;;;;;;;;;;4356040;32;19961;-70
2021/11/11 08:19:28;;;;;;;;;;;;;;;;;;4363538;32;19934;-71
2021/11/11 08:21:53;;;;;;;;;;;;;;;;;;4368193;32;19946;-71
2021/11/11 08:24:19;;;;;;;;;;;;;;;;;;4373407;32;20007;-74
2021/11/11 08:29:31;;;;;;;;;;;;;;;;;;4375434;32;19940;-71
2021/11/11 08:31:56;;;;;;;;;;;;;;;;;;4375006;32;19961;-70
2021/11/11 08:34:21;;;;;;;;;;;;;;;;;;4375209;32;19950;-71
2021/11/11 08:36:47;;;;;;;;;;;;;;;;;;4375422;32;19972;-71
2021/11/11 08:39:15;;;;;;;;;;;;;;;;;;4373582;32;20001;-72
2021/11/11 08:47:09;;;;;;;;;;;;;;;;;;4343730;33;19976;-70
2021/11/11 08:49:39;;;;;;;;;;;;;;;;;;4363516;32;19942;-70
2021/11/11 08:52:05;;;;;;;;;;;;;;;;;;4375316;32;19973;-72
2021/11/11 09:00:09;;;;;;;;;;;;;;;;;;4376143;32;19957;-70
2021/11/11 09:02:34;;;;;;;;;;;;;;;;;;4390613;32;19934;-71
2021/11/11 09:05:07;;;;;;;;;;;;;;;;;;4387794;32;19948;-73
2021/11/11 09:07:50;;;;;;;;;;;;;;;;;;4366028;32;19952;-70
2021/11/11 09:10:15;;;;;;;;;;;;;;;;;;4374606;32;20328;-70
2021/11/11 09:12:41;;;;;;;;;;;;;;;;;;4374274;32;19942;-70
2021/11/11 09:15:06;;;;;;;;;;;;;;;;;;4375129;32;19934;-71
2021/11/11 09:17:38;;;;;;;;;;;;;;;;;;4375518;32;19954;-71
2021/11/11 09:20:07;;;;;;;;;;;;;;;;;;4374710;32;19938;-70
2021/11/11 09:22:41;;;;;;;;;;;;;;;;;;4375269;32;20335;-71
2021/11/11 09:25:16;;;;;;;;;;;;;;;;;;;;;
2021/11/11 09:27:42;;;;;;;;;;;;;;;;;;4371648;32;19947;-70
2021/11/11 09:30:07;;;;;;;;;;;;;;;;;;4361493;32;19957;-71
2021/11/11 09:32:32;;;;;;;;;;;;;;;;;;4375242;32;19939;-71
2021/11/11 09:34:57;;;;;;;;;;;;;;;;;;4375185;32;19934;-71
2021/11/11 09:40:13;;;;;;;;;;;;;;;;;;4374977;32;19929;-71
2021/11/11 09:42:40;;;;;;;;;;;;;;;;;;4385399;32;19969;-70
2021/11/11 09:47:59;;;;;;;;;;;;;;;;;;4345641;32;20281;-71
2021/11/11 09:50:45;;;;;;;;;;;;;;;;;;4385288;32;19960;-73
2021/11/11 09:53:12;;;;;;;;;;;;;;;;;;4392563;32;19942;-71
2021/11/11 09:58:36;;;;;;;;;;;;;;;;;;4390909;32;19992;-70
2021/11/11 10:01:01;;;;;;;;;;;;;;;;;;4379546;32;19996;-71
2021/11/11 10:03:27;;;;;;;;;;;;;;;;;;4363017;32;19950;-71
2021/11/11 10:05:52;;;;;;;;;;;;;;;;;;4387114;32;20316;-73
2021/11/11 10:08:17;;;;;;;;;;;;;;;;;;4387941;32;19956;-70
2021/11/11 10:10:42;;;;;;;;;;;;;;;;;;4389651;32;19971;-70
2021/11/11 10:13:07;;;;;;;;;;;;;;;;;;4389547;32;19934;-71
2021/11/11 10:15:33;;;;;;;;;;;;;;;;;;4390141;32;19942;-72
2021/11/11 10:17:58;;;;;;;;;;;;;;;;;;4391485;32;20391;-73
2021/11/11 10:20:23;;;;;;;;;;;;;;;;;;4391754;32;19934;-71
2021/11/11 10:22:48;;;;;;;;;;;;;;;;;;4392138;32;19977;-71
2021/11/11 10:25:13;;;;;;;;;;;;;;;;;;4392120;32;20271;-71
2021/11/11 10:27:48;;;;;;;;;;;;;;;;;;4392251;32;19973;-71
2021/11/11 10:30:21;;;;;;;;;;;;;;;;;;4390300;32;19937;-71
2021/11/11 10:32:46;;;;;;;;;;;;;;;;;;4392371;32;19942;-70
2021/11/11 10:35:11;;;;;;;;;;;;;;;;;;4391740;32;19934;-71
2021/11/11 10:37:37;;;;;;;;;;;;;;;;;;4392434;32;20290;-71
2021/11/11 10:40:02;;;;;;;;;;;;;;;;;;4392174;32;20360;-71
2021/11/11 10:42:40;;;;;;;;;;;;;;;;;;;;;
2021/11/11 10:45:07;;;;;;;;;;;;;;;;;;4362731;32;19943;-70
2021/11/11 10:47:32;;;;;;;;;;;;;;;;;;4361914;32;19986;-70
2021/11/11 10:49:57;;;;;;;;;;;;;;;;;;4362819;32;19934;-71
2021/11/11 10:52:23;;;;;;;;;;;;;;;;;;4361810;32;19962;-71
2021/11/11 10:54:51;;;;;;;;;;;;;;;;;;4361289;32;19966;-71
2021/11/11 10:57:26;;;;;;;;;;;;;;;;;;;;;
2021/11/11 11:00:07;;;;;;;;;;;;;;;;;;4361978;33;19943;-70
2021/11/11 11:02:33;;;;;;;;;;;;;;;;;;4362372;32;20280;-70
2021/11/11 11:10:30;;;;;;;;;;;;;;;;;;4315915;33;19929;-71
2021/11/11 11:13:11;;;;;;;;;;;;;;;;;;4303057;33;20305;-72
2021/11/11 11:15:36;;;;;;;;;;;;;;;;;;4315387;33;19950;-71
2021/11/11 11:18:01;;;;;;;;;;;;;;;;;;4319039;33;19943;-71
2021/11/11 11:20:28;;;;;;;;;;;;;;;;;;4361774;32;20240;-70
2021/11/11 11:22:53;;;;;;;;;;;;;;;;;;4362105;32;19968;-71
2021/11/11 11:25:18;;;;;;;;;;;;;;;;;;4361680;32;19965;-70
2021/11/11 11:27:43;;;;;;;;;;;;;;;;;;4361903;32;20214;-70
2021/11/11 11:30:14;;;;;;;;;;;;;;;;;;4361505;32;20404;-70
2021/11/11 11:32:44;;;;;;;;;;;;;;;;;;4361434;32;20242;-71
2021/11/11 11:35:09;;;;;;;;;;;;;;;;;;4361734;32;20027;-70
2021/11/11 11:37:35;;;;;;;;;;;;;;;;;;4361454;32;20284;-70
2021/11/11 11:40:02;;;;;;;;;;;;;;;;;;4361000;32;19938;-71
2021/11/11 11:42:35;;;;;;;;;;;;;;;;;;4365327;32;20267;-70
2021/11/11 11:45:01;;;;;;;;;;;;;;;;;;4376457;32;20288;-70
2021/11/11 11:50:24;;;;;;;;;;;;;;;;;;4376445;32;19930;-71
2021/11/11 11:52:56;;;;;;;;;;;;;;;;;;4378076;32;19980;-70
2021/11/11 11:55:29;;;;;;;;;;;;;;;;;;4390678;32;19937;-71
2021/11/11 12:08:28;;;;;;;;;;;;;;;;;;4389287;32;20363;-72
2021/11/11 12:10:56;;;;;;;;;;;;;;;;;;4390296;32;19933;-73
2021/11/11 12:13:40;;;;;;;;;;;;;;;;;;4390119;32;19942;-71
2021/11/11 12:16:23;;;;;;;;;;;;;;;;;;4390986;32;19992;-71
2021/11/11 12:34:11;;;;;;;;;;;;;;;;;;4365012;32;19953;-71
2021/11/11 12:41:02;;;;;;;;;;;;;;;;;;4373194;32;19994;-71
2021/11/11 12:43:28;;;;;;;;;;;;;;;;;;4385703;32;19971;-71
2021/11/11 12:45:53;;;;;;;;;;;;;;;;;;4388997;32;19934;-73
2021/11/11 12:48:19;;;;;;;;;;;;;;;;;;4388506;32;20382;-71
2021/11/11 12:50:44;;;;;;;;;;;;;;;;;;4389161;32;19994;-71
2021/11/11 12:53:19;;;;;;;;;;;;;;;;;;;;;
2021/11/11 12:55:48;;;;;;;;;;;;;;;;;;4390706;32;19937;-71
2021/11/11 13:04:32;;;;;;;;;;;;;;;;;;4387518;32;19967;-72
2021/11/11 13:06:39;;;;;;;;;;;;;;;;;;4387398;32;19949;-71
2021/11/11 13:11:51;;;;;;;;;;;;;;;;;;4390762;32;20266;-71
2021/11/11 13:14:32;;;;;;;;;;;;;;;;;;4390067;32;19938;-72
2021/11/11 13:17:50;;;;;;;;;;;;;;;;;;4391229;32;20023;-72
2021/11/11 13:22:37;;;;;;;;;;;;;;;;;;4394186;32;19933;-71
2021/11/11 14:00:56;;;;;;;;;;;;;;;;;;4392316;32;19981;-71
2021/11/11 14:03:50;;;;;;;;;;;;;;;;;;4400900;32;19933;-71
2021/11/11 15:20:11;;;;;;;;;;;;;;;;;;4391816;32;19940;-71
2021/11/11 16:01:16;;;;;;;;;;;;;;;;;;4390841;32;19938;-71
2021/11/11 16:27:29;;;;;;;;;;;;;;;;;;4390627;32;19942;-70
2021/11/11 16:29:54;;;;;;;;;;;;;;;;;;4390982;32;19944;-70
2021/11/11 16:32:19;;;;;;;;;;;;;;;;;;4390441;32;19950;-71
2021/11/11 16:34:55;;;;;;;;;;;;;;;;;;;;;
2021/11/11 16:37:20;;;;;;;;;;;;;;;;;;4390088;32;19996;-70
2021/11/11 16:39:45;;;;;;;;;;;;;;;;;;4390034;32;19934;-70
2021/11/11 16:42:29;;;;;;;;;;;;;;;;;;;;;
2021/11/11 16:44:55;;;;;;;;;;;;;;;;;;4387950;32;19956;-71
2021/11/11 16:49:23;;;;;;;127.87;54.40;;;;;;;;;;4448678;32;20055;-71
2021/11/11 16:51:52;;;;;;;;;;;;;;;;;;4449471;32;20033;-70
2021/11/11 16:54:17;;;;;;;118.15;56.58;;;;;;;;;;4435510;32;20028;-70
2021/11/11 16:56:42;;;;;;;;;;;;;;;;;;4435222;32;20358;-69
2021/11/11 16:59:08;;;;;;;144.37;62.35;;;;;;;;;;4435335;32;19956;-69
2021/11/11 17:01:33;;;;;;;;;;;;;;;;;;4449236;32;20185;-71
2021/11/11 17:03:59;;;;;;;134.25;59.80;;;;;;;;;;4446432;32;19980;-70
2021/11/11 17:06:24;;;;;;;;;;;;;;;;;;4449255;32;20133;-70
2021/11/11 17:08:49;;;;;;;153.87;64.70;;;;;;;;;;4449634;32;19936;-70
2021/11/11 17:11:14;;;;;;;;;;;;;;;;;;4435109;32;20370;-71
2021/11/11 17:13:43;;;;;;;155.90;68.62;;;;;;;;;;4449291;32;19948;-73
2021/11/11 17:16:15;;;;;;;171.85;69.57;;;;;;;;;;4449067;32;20154;-72
2021/11/11 17:18:54;;;;;;;158.25;67.40;;;;;;;;;;4448818;32;20195;-72
2021/11/11 17:24:40;;;;;;;162.60;64.72;;;;;;;;;;4448941;32;20123;-72
2021/11/11 17:27:20;;;;;;;143.15;65.68;;;;;;;;;;4446579;32;20102;-72
2021/11/11 17:29:45;;;;;;;158.23;64.43;;;;;;;;;;4446622;32;20036;-73
2021/11/11 17:32:11;;;;;;;;;;;;;;;;;;4448812;32;20355;-72
2021/11/11 17:34:39;;;;;;;161.62;67.75;;;;;;;;;;4448709;32;20010;-72
2021/11/11 17:37:04;;;;;;;154.02;72.50;;;;;;;;;;4448600;32;20083;-72
2021/11/11 17:39:29;;;;;;;;;;;;;;;;;;4449061;32;20030;-71
2021/11/11 17:41:55;;;;;;;161.40;69.25;;;;;;;;;;4448804;32;19944;-71
2021/11/11 17:44:38;;;;;;;;;;;;;;;;;;4434904;32;20355;-72
2021/11/11 17:47:06;;;;;;;144.73;64.70;;;;;;;;;;4448543;32;19949;-71
2021/11/11 17:49:41;;;;;;;141.98;65.03;;;;;;;;;;4447281;32;20499;-72
2021/11/11 17:52:26;;;;;;;140.30;62.13;;;;;;;;;;4448098;32;20399;-72
2021/11/11 17:55:00;;;;;;;135.73;61.88;;;;;;;;;;4433494;32;20374;-72
2021/11/11 17:57:29;;;;;;;146.43;63.75;;;;;;;;;;4433371;32;20065;-72
2021/11/11 17:59:54;;;;;;;149.50;63.83;;;;;;;;;;4426774;32;20041;-72
2021/11/11 18:02:26;;;;;;;;;;;;;;;;;;4423445;32;20026;-72
2021/11/11 18:04:56;;;;;;;147.93;64.97;;;;;;;;;;4422319;32;19990;-71
2021/11/11 18:07:32;;;;;;;154.70;62.47;;;;;;;;;;4422319;32;20472;-73
2021/11/11 18:10:05;;;;;;;157.63;65.57;;;;;;;;;;4422723;32;20069;-72
2021/11/11 18:12:36;;;;;;;142.13;61.58;;;;;;;;;;4421027;32;20481;-72
2021/11/11 18:15:05;;;;;;;154.12;60.63;;;;;;;;;;4422632;32;20052;-72
2021/11/11 18:18:05;;;;;;;142.25;65.35;;;;;;;;;;4421995;32;20052;-71
2021/11/11 18:20:33;;;;;;;129.87;58.63;;;;;;;;;;4422806;32;20017;-71
2021/11/11 18:23:16;;;;;;;120.00;55.65;;;;;;;;;;4422688;32;20038;-71
2021/11/11 18:25:42;;;;;;;125.18;57.47;;;;;;;;;;4423593;32;20026;-71
2021/11/11 18:28:07;;;;;;;;;;;;;;;;;;4438006;32;20057;-71
2021/11/11 18:30:37;;;;;;;116.28;52.65;;;;;;;;;;4437497;32;19952;-73
2021/11/11 18:33:07;;;;;;;115.80;53.85;;;;;;;;;;4437329;32;20093;-73
2021/11/11 18:38:13;;;;;;;107.28;54.00;;;;;;;;;;4437637;32;20046;-72
2021/11/11 18:40:40;;;;;;;112.97;52.80;;;;;;;;;;4437263;32;20329;-72
2021/11/11 18:43:05;;;;;;;110.68;54.38;;;;;;;;;;4437318;32;20021;-72
2021/11/11 18:45:33;;;;;;;;;;;;;;;;;;4438300;32;20068;-72
2021/11/11 18:48:27;;;;;;;99.90;48.42;;;;;;;;;;4422938;32;20280;-72
2021/11/11 18:50:57;;;;;;;90.07;50.53;;;;;;;;;;4424091;32;20045;-72
2021/11/11 18:53:24;;;;;;;94.82;47.17;;;;;;;;;;4437924;32;20060;-72
2021/11/11 18:55:55;;;;;;;94.10;48.33;;;;;;;;;;4437646;32;20021;-72
2021/11/11 18:58:21;;;;;;;100.47;47.03;;;;;;;;;;4409124;32;20022;-72
2021/11/11 19:00:46;;;;;;;;;;;;;;;;;;4437446;32;20061;-73
2021/11/11 19:03:14;;;;;;;86.55;44.47;;;;;;;;;;4437439;32;19933;-72
2021/11/11 19:05:54;;;;;;;87.47;44.83;;;;;;;;;;4437285;32;20112;-72
2021/11/11 19:11:36;;;;;;;96.43;45.78;;;;;;;;;;4372567;32;20057;-72
2021/11/11 19:14:05;;;;;;;91.25;45.78;;;;;;;;;;4370753;32;20057;-73
2021/11/11 19:19:38;;;;;;;91.90;47.72;;;;;;;;;;4424497;32;20033;-72
2021/11/11 19:22:04;;;;;;;87.18;43.53;;;;;;;;;;4437035;32;20086;-72
2021/11/11 19:24:29;;;;;;;;;;;;;;;;;;4437181;32;20022;-72
2021/11/11 19:30:27;;;;;;;;;;;;;;;;;;;;;
2021/11/11 19:33:01;;;;;;;83.37;43.25;;;;;;;;;;4399396;32;20374;-72
2021/11/11 19:35:34;;;;;;;83.68;43.50;;;;;;;;;;4423138;32;20086;-71
2021/11/11 19:41:40;;;;;;;86.87;42.70;;;;;;;;;;4436707;32;20059;-72
2021/11/11 20:15:42;;;;;;;69.50;35.13;;;;;;;;;;4420378;32;20408;-72
2021/11/11 20:34:23;;;;;;;;;;;;;;;;;;4424757;32;20070;-72
2021/11/11 20:37:01;;;;;;;56.30;31.60;;;;;;;;;;4422541;32;19987;-72
2021/11/11 21:01:18;;;;;;;47.45;31.45;;;;;;;;;;4420702;32;20064;-71
2021/11/11 21:09:16;;;;;;;47.90;29.95;;;;;;;;;;4419005;32;20071;-72
2021/11/11 21:12:03;;;;;;;48.57;29.93;;;;;;;;;;4420687;32;20031;-71
2021/11/11 21:15:01;;;;;;;58.05;34.45;;;;;;;;;;4420145;32;20118;-71
2021/11/11 21:17:36;;;;;;;45.63;28.67;;;;;;;;;;4421089;32;20044;-71
2021/11/11 21:20:06;;;;;;;45.47;29.67;;;;;;;;;;4419977;32;20026;-72
2021/11/11 21:22:32;;;;;;;44.30;28.45;;;;;;;;;;4420144;32;20041;-72
2021/11/11 21:24:59;;;;;;;;;;;;;;;;;;4420876;32;20427;-71
2021/11/11 21:27:30;;;;;;;;;;;;;;;;;;4420761;32;19937;-71
2021/11/11 21:30:00;;;;;;;44.72;29.00;;;;;;;;;;4427666;32;20373;-72
2021/11/11 21:32:26;;;;;;;49.47;28.73;;;;;;;;;;4435792;32;20059;-71
2021/11/11 21:43:31;;;;;;;43.53;27.20;;;;;;;;;;4361436;32;20435;-71
2021/11/11 21:45:58;;;;;;;45.08;27.83;;;;;;;;;;4360907;32;20104;-71
2021/11/11 21:51:09;;;;;;;45.22;28.08;;;;;;;;;;4438435;32;20068;-70
2021/11/11 21:53:36;;;;;;;;;;;;;;;;;;4438534;32;20403;-71
2021/11/11 22:04:28;;;;;;;46.92;28.48;;;;;;;;;;4438253;32;20048;-71
2021/11/11 22:07:22;;;;;;;47.22;28.50;;;;;;;;;;4438512;32;20047;-71
2021/11/11 22:22:25;;;;;;;46.28;28.62;;;;;;;;;;4438076;32;20056;-71
2021/11/11 22:30:16;;;;;;;49.50;29.40;;;;;;;;;;4437941;32;20022;-71
2021/11/11 22:32:49;;;;;;;54.90;30.48;;;;;;;;;;4438037;32;20018;-71
2021/11/11 22:35:14;;;;;;;49.08;30.58;;;;;;;;;;4437928;32;20493;-71
2021/11/11 22:37:39;;;;;;;;;;;;;;;;;;4438103;32;20018;-71
2021/11/11 22:40:09;;;;;;;55.00;32.25;;;;;;;;;;4437992;32;19948;-71
2021/11/11 22:42:34;;;;;;;52.22;30.02;;;;;;;;;;4424199;32;20195;-71
2021/11/11 22:44:59;;;;;;;;;;;;;;;;;;4437827;32;20071;-71
2021/11/11 22:47:25;;;;;;;56.80;30.36;;;;;;;;;;4437151;32;19963;-71
2021/11/11 22:49:50;;;;;;;;;;;;;;;;;;4436131;32;20046;-71
2021/11/11 22:52:17;;;;;;;49.95;30.27;;;;;;;;;;4437578;32;20348;-71
2021/11/11 22:54:46;;;;;;;44.00;28.73;;;;;;;;;;4437150;32;20026;-71
2021/11/11 22:57:35;;;;;;;63.92;34.83;;;;;;;;;;4423188;32;20051;-72
2021/11/11 23:33:46;;;;;;;54.17;31.73;;;;;;;;;;4437097;32;20051;-71
2021/11/11 23:36:12;;;;;;;;;;;;;;;;;;4437226;32;20041;-70
2021/11/11 23:38:46;;;;;;;52.83;31.62;;;;;;;;;;4436915;32;19994;-71
2021/11/11 23:47:36;;;;;;;52.88;30.92;;;;;;;;;;4437056;32;20055;-71
